Time;durP1;ratioP1;P1;durP2;ratioP2;P2;SDS_P1;SDS_P2;PMS_P1;PMS_P2;Temp;Humidity;BMP_temperature;BMP_pressure;BME280_temperature;BME280_humidity;BME280_pressure;Samples;Min_cycle;Max_cycle;Signal;HPM_P1;HPM_P2
2022/07/31 00:00:19;;;;;;;5.40;3.70;;;;;;;18.66;91.17;100980.63;690347;28;1223;-45
2022/07/31 00:00:40;;;;;;;5.55;3.70;;;;;;;18.66;91.76;100981.50;691920;28;4702;-45
2022/07/31 00:01:01;;;;;;;5.95;3.53;;;;;;;18.66;90.91;100978.84;690057;28;949;-45
2022/07/31 00:01:21;;;;;;;5.27;3.73;;;;;;;18.66;91.67;100983.28;686953;28;1514;-47
2022/07/31 00:01:42;;;;;;;5.95;4.00;;;;;;;18.64;92.47;100980.69;686632;28;1321;-44
2022/07/31 00:02:02;;;;;;;7.50;4.10;;;;;;;18.64;91.91;100985.13;688493;28;1183;-44
2022/07/31 00:02:22;;;;;;;6.50;3.95;;;;;;;18.62;91.74;100987.81;687560;28;1447;-44
2022/07/31 00:02:43;;;;;;;6.13;3.80;;;;;;;18.60;91.31;100979.03;688317;28;1985;-45
2022/07/31 00:03:03;;;;;;;5.53;3.97;;;;;;;18.60;90.77;100980.84;690584;28;1266;-44
2022/07/31 00:03:24;;;;;;;5.30;4.00;;;;;;;18.63;91.63;100978.09;690552;28;1164;-44
2022/07/31 00:03:44;;;;;;;4.90;3.57;;;;;;;18.62;92.50;100977.22;690938;28;4476;-46
2022/07/31 00:04:05;;;;;;;5.40;3.80;;;;;;;18.62;92.08;100984.28;687763;28;1215;-44
2022/07/31 00:04:27;;;;;;;5.47;3.90;;;;;;;18.64;90.96;100983.31;688161;28;1190;-44
2022/07/31 00:04:47;;;;;;;5.57;3.63;;;;;;;18.65;91.08;100979.78;687147;28;1164;-44
2022/07/31 00:05:08;;;;;;;6.35;3.70;;;;;;;18.64;90.87;100978.03;687288;28;1281;-44
2022/07/31 00:05:29;;;;;;;5.80;3.78;;;;;;;18.61;90.82;100979.91;690186;28;1185;-44
2022/07/31 00:05:50;;;;;;;6.10;3.97;;;;;;;18.58;90.56;100983.53;687606;28;1187;-45
2022/07/31 00:06:10;;;;;;;5.40;3.70;;;;;;;18.56;90.22;100974.78;689626;28;1336;-44
2022/07/31 00:06:31;;;;;;;5.80;3.77;;;;;;;18.57;89.22;100976.50;688671;28;4558;-44
2022/07/31 00:06:51;;;;;;;5.73;3.77;;;;;;;18.60;89.40;100981.69;690952;28;1478;-44
2022/07/31 00:07:11;;;;;;;5.63;3.67;;;;;;;18.63;89.38;100975.44;688728;28;1341;-44
2022/07/31 00:07:32;;;;;;;5.23;3.70;;;;;;;18.62;89.69;100982.53;690068;28;1469;-46
2022/07/31 00:07:53;;;;;;;5.00;3.78;;;;;;;18.67;89.03;100977.91;689555;28;1384;-44
2022/07/31 00:08:13;;;;;;;6.95;4.05;;;;;;;18.64;89.56;100978.03;690286;28;1373;-44
2022/07/31 00:08:34;;;;;;;5.00;3.80;;;;;;;18.62;89.33;100979.00;689203;28;1421;-45
2022/07/31 00:08:54;;;;;;;5.00;3.70;;;;;;;18.62;89.43;100979.88;692588;28;1550;-44
2022/07/31 00:09:15;;;;;;;5.07;3.70;;;;;;;18.61;89.70;100979.91;692120;28;1570;-44
2022/07/31 00:09:35;;;;;;;7.35;4.00;;;;;;;18.61;89.31;100975.50;691953;28;4392;-44
2022/07/31 00:09:55;;;;;;;6.83;3.90;;;;;;;18.62;90.03;100985.19;692145;28;3621;-44
2022/07/31 00:10:16;;;;;;;6.17;4.00;;;;;;;18.61;90.72;100978.13;690938;28;1295;-45
2022/07/31 00:10:36;;;;;;;5.85;4.13;;;;;;;18.60;90.71;100980.84;689573;28;1499;-44
2022/07/31 00:10:57;;;;;;;5.20;3.90;;;;;;;18.58;90.46;100980.00;690211;28;1492;-44
2022/07/31 00:11:17;;;;;;;5.53;3.80;;;;;;;18.58;89.95;100986.19;689020;28;1701;-44
2022/07/31 00:11:38;;;;;;;6.60;3.90;;;;;;;18.57;89.83;100973.88;689251;28;1306;-43
2022/07/31 00:11:58;;;;;;;5.53;3.77;;;;;;;18.57;89.47;100979.16;689061;28;1285;-46
2022/07/31 00:12:20;;;;;;;6.07;3.97;;;;;;;18.56;89.62;100982.72;686833;28;1281;-44
2022/07/31 00:12:40;;;;;;;5.72;4.03;;;;;;;18.56;89.62;100988.00;689166;28;4433;-45
2022/07/31 00:13:01;;;;;;;5.30;3.88;;;;;;;18.54;89.74;100984.56;691062;28;1191;-45
2022/07/31 00:13:22;;;;;;;5.40;4.10;;;;;;;18.54;89.78;100984.56;689573;28;1199;-44
2022/07/31 00:13:42;;;;;;;4.55;3.70;;;;;;;18.55;89.27;100978.31;688723;28;1233;-44
2022/07/31 00:14:03;;;;;;;4.57;3.67;;;;;;;18.53;89.56;100983.69;689183;28;1197;-45
2022/07/31 00:14:23;;;;;;;5.70;3.80;;;;;;;18.51;89.59;100979.34;693005;28;1142;-45
2022/07/31 00:14:44;;;;;;;6.00;3.83;;;;;;;18.53;89.09;100982.81;692772;28;1178;-45
2022/07/31 00:15:07;;;;;;;5.85;3.88;;;;;;;18.52;89.08;100987.22;692407;28;1349;-45
2022/07/31 00:15:27;;;;;;;6.32;3.90;;;;;;;18.54;88.93;100984.56;693389;28;1285;-44
2022/07/31 00:15:47;;;;;;;5.80;3.80;;;;;;;18.53;88.69;100988.13;692732;28;4309;-45
2022/07/31 00:16:08;;;;;;;5.17;3.60;;;;;;;18.54;88.88;100985.41;692152;28;1257;-44
2022/07/31 00:16:28;;;;;;;6.18;3.63;;;;;;;18.55;88.55;100986.25;688671;28;1452;-44
2022/07/31 00:16:49;;;;;;;6.07;3.70;;;;;;;18.54;88.65;100989.84;691150;28;1222;-44
2022/07/31 00:17:09;;;;;;;6.57;3.70;;;;;;;18.50;89.02;100986.44;689021;28;1218;-45
2022/07/31 00:17:29;;;;;;;4.95;3.60;;;;;;;18.52;89.12;100986.38;687137;28;2987;-44
2022/07/31 00:17:50;;;;;;;5.43;4.00;;;;;;;18.51;90.12;100984.63;685923;28;2244;-44
2022/07/31 00:18:11;;;;;;;5.50;3.83;;;;;;;18.50;89.38;100988.22;688569;28;1352;-44
2022/07/31 00:18:32;;;;;;;5.70;3.60;;;;;;;18.48;89.94;100984.75;688058;28;4589;-44
2022/07/31 00:18:53;;;;;;;5.03;3.70;;;;;;;18.47;89.66;100983.88;689543;28;1542;-44
2022/07/31 00:19:13;;;;;;;4.95;3.70;;;;;;;18.49;89.28;100978.53;688528;28;1371;-44
2022/07/31 00:19:34;;;;;;;4.43;3.60;;;;;;;18.49;89.11;100981.19;689431;28;1382;-44
2022/07/31 00:19:54;;;;;;;5.18;3.67;;;;;;;18.45;89.56;100991.00;688553;28;1505;-44
2022/07/31 00:20:16;;;;;;;6.10;3.70;;;;;;;18.48;89.19;100982.09;688699;28;1336;-44
2022/07/31 00:20:36;;;;;;;6.38;3.63;;;;;;;18.48;89.89;100984.75;687720;28;1227;-44
2022/07/31 00:20:57;;;;;;;5.25;3.75;;;;;;;18.46;90.02;100981.28;687512;28;1540;-44
2022/07/31 00:21:17;;;;;;;5.40;3.90;;;;;;;18.45;89.71;100979.56;689157;28;1594;-43
2022/07/31 00:21:38;;;;;;;5.90;3.70;;;;;;;18.46;89.09;100981.28;688620;28;4559;-45
2022/07/31 00:21:58;;;;;;;5.68;3.60;;;;;;;18.48;89.16;100980.31;689764;28;1266;-44
2022/07/31 00:22:18;;;;;;;5.40;3.40;;;;;;;18.49;89.12;100986.47;688599;28;1261;-44
2022/07/31 00:22:43;;;;;;;6.20;3.53;;;;;;;18.50;88.43;100978.50;688831;28;1909;-44
2022/07/31 00:23:03;;;;;;;5.65;3.60;;;;;;;18.51;88.22;100974.03;689401;28;1238;-45
2022/07/31 00:23:24;;;;;;;5.15;3.60;;;;;;;18.48;88.37;100980.31;689318;28;1280;-44
2022/07/31 00:23:44;;;;;;;5.27;3.53;;;;;;;18.46;88.60;100981.28;689122;28;1146;-44
2022/07/31 00:24:05;;;;;;;5.50;3.53;;;;;;;18.44;88.62;100977.81;688361;28;1174;-46
2022/07/31 00:24:25;;;;;;;5.57;3.40;;;;;;;18.43;88.51;100981.38;688345;28;1318;-44
2022/07/31 00:24:46;;;;;;;6.43;3.97;;;;;;;18.46;89.76;100981.28;687800;28;4321;-46
2022/07/31 00:25:07;;;;;;;6.03;3.70;;;;;;;18.48;89.13;100974.16;688827;28;1171;-44
2022/07/31 00:25:27;;;;;;;5.95;3.60;;;;;;;18.50;88.28;100977.63;688960;28;1349;-44
2022/07/31 00:25:48;;;;;;;4.93;3.50;;;;;;;18.53;88.06;100985.47;688458;28;1483;-44
2022/07/31 00:26:08;;;;;;;4.80;3.50;;;;;;;18.54;88.03;100974.81;689438;28;1358;-44
2022/07/31 00:26:29;;;;;;;5.40;3.40;;;;;;;18.55;87.49;100983.63;690628;28;1779;-44
2022/07/31 00:26:49;;;;;;;5.17;3.30;;;;;;;18.54;87.51;100984.56;690372;28;1289;-44
2022/07/31 00:27:10;;;;;;;5.82;3.67;;;;;;;18.53;89.09;100974.88;690183;28;1365;-46
2022/07/31 00:27:30;;;;;;;5.30;3.60;;;;;;;18.49;88.01;100974.09;689306;28;4416;-44
2022/07/31 00:27:50;;;;;;;4.90;3.40;;;;;;;18.48;87.94;100980.31;689963;28;1301;-44
2022/07/31 00:28:11;;;;;;;5.17;3.30;;;;;;;18.50;88.70;100982.94;688705;28;952;-46
2022/07/31 00:28:31;;;;;;;6.00;3.47;;;;;;;18.48;89.61;100980.31;689500;28;1313;-44
2022/07/31 00:28:52;;;;;;;5.40;3.33;;;;;;;18.47;89.67;100985.66;685619;28;1357;-44
2022/07/31 00:29:12;;;;;;;5.18;3.45;;;;;;;18.46;89.80;100981.28;685667;28;1483;-44
2022/07/31 00:29:32;;;;;;;4.40;3.40;;;;;;;18.46;89.39;100981.28;684299;28;1342;-46
2022/07/31 00:29:53;;;;;;;5.33;3.60;;;;;;;18.47;89.39;100977.72;683024;28;1361;-45
2022/07/31 00:30:15;;;;;;;5.50;3.45;;;;;;;18.45;89.36;100975.13;683396;28;1382;-44
2022/07/31 00:30:36;;;;;;;4.90;3.42;;;;;;;18.44;89.29;100977.81;679698;28;4592;-45
2022/07/31 00:30:56;;;;;;;5.03;3.33;;;;;;;18.45;88.73;100976.91;682268;28;1267;-46
2022/07/31 00:31:17;;;;;;;5.53;3.30;;;;;;;18.43;88.59;100979.59;682554;28;1516;-46
2022/07/31 00:31:37;;;;;;;5.15;3.53;;;;;;;18.43;88.20;100976.06;684066;28;1494;-45
2022/07/31 00:31:58;;;;;;;5.87;3.40;;;;;;;18.40;87.63;100978.84;685446;28;1195;-45
2022/07/31 00:32:18;;;;;;;6.37;3.50;;;;;;;18.40;88.03;100973.53;687401;28;1198;-47
2022/07/31 00:32:39;;;;;;;5.43;3.50;;;;;;;18.38;87.81;100979.75;691309;28;1285;-44
2022/07/31 00:33:00;;;;;;;5.53;3.50;;;;;;;18.37;87.78;100977.16;690761;28;1360;-44
2022/07/31 00:33:20;;;;;;;4.73;3.27;;;;;;;18.37;87.61;100971.84;690911;28;1289;-44
2022/07/31 00:33:41;;;;;;;4.80;3.10;;;;;;;18.36;87.53;100980.72;690182;28;4533;-44
2022/07/31 00:34:01;;;;;;;5.75;3.30;;;;;;;18.35;87.75;100977.19;686153;28;1848;-44
2022/07/31 00:34:22;;;;;;;5.82;3.20;;;;;;;18.36;87.89;100978.09;684883;28;1161;-43
2022/07/31 00:34:42;;;;;;;5.60;3.17;;;;;;;18.36;88.37;100975.44;686289;28;1208;-44
2022/07/31 00:35:03;;;;;;;5.10;3.30;;;;;;;18.35;88.33;100977.19;686500;28;1246;-44
2022/07/31 00:35:23;;;;;;;4.87;3.20;;;;;;;18.34;88.87;100972.81;684631;28;1175;-44
2022/07/31 00:35:44;;;;;;;4.40;3.20;;;;;;;18.36;89.13;100976.28;685030;28;1164;-45
2022/07/31 00:36:04;;;;;;;5.07;3.43;;;;;;;18.37;88.64;100975.38;688076;28;1139;-44
2022/07/31 00:36:25;;;;;;;4.93;3.40;;;;;;;18.37;89.34;100978.03;689473;28;1478;-44
2022/07/31 00:36:45;;;;;;;5.23;3.33;;;;;;;18.37;89.54;100970.09;686641;28;4425;-44
2022/07/31 00:37:05;;;;;;;6.28;3.33;;;;;;;18.38;89.07;100976.25;686840;28;1408;-47
2022/07/31 00:37:26;;;;;;;5.87;3.20;;;;;;;18.35;87.76;100974.56;686866;28;1585;-45
2022/07/31 00:37:46;;;;;;;5.55;3.35;;;;;;;18.35;88.14;100971.06;686273;28;1179;-44
2022/07/31 00:38:09;;;;;;;5.37;3.27;;;;;;;18.31;88.43;100972.06;686408;28;1421;-46
2022/07/31 00:38:30;;;;;;;5.00;3.03;;;;;;;18.31;88.39;100974.72;686054;28;1337;-43
2022/07/31 00:38:50;;;;;;;5.07;3.20;;;;;;;18.29;87.77;100980.06;688090;28;1309;-43
2022/07/31 00:39:10;;;;;;;5.13;3.15;;;;;;;18.28;88.13;100978.31;687702;28;1048;-44
2022/07/31 00:39:31;;;;;;;5.50;3.37;;;;;;;18.30;88.82;100976.47;687224;28;4334;-44
2022/07/31 00:39:53;;;;;;;4.68;3.30;;;;;;;18.28;88.12;100980.09;683742;28;1507;-44
2022/07/31 00:40:15;;;;;;;5.28;3.40;;;;;;;18.28;88.27;100978.31;683760;28;1512;-43
2022/07/31 00:40:43;;;;;;;5.38;3.40;;;;;;;18.29;87.99;100974.75;683250;28;1327;-47
2022/07/31 00:41:04;;;;;;;5.72;3.42;;;;;;;18.27;87.85;100976.56;684456;28;1041;-43
2022/07/31 00:41:24;;;;;;;4.93;3.22;;;;;;;18.27;87.88;100978.38;684613;28;1188;-45
2022/07/31 00:41:45;;;;;;;5.33;3.30;;;;;;;18.28;87.85;100986.25;684260;28;1089;-44
2022/07/31 00:42:17;;;;;;;6.03;3.47;;;;;;;18.27;89.23;100979.22;684210;28;1207;-43
2022/07/31 00:42:38;;;;;;;5.07;3.38;;;;;;;18.27;88.56;100975.72;689741;28;4377;-43
2022/07/31 00:42:58;;;;;;;5.68;3.38;;;;;;;18.25;88.49;100978.41;690894;28;1210;-44
2022/07/31 00:43:19;;;;;;;5.55;3.30;;;;;;;18.24;88.31;100981.97;686476;28;1714;-45
2022/07/31 00:43:39;;;;;;;4.80;3.40;;;;;;;18.23;88.60;100984.69;686530;28;1274;-44
2022/07/31 00:44:00;;;;;;;4.95;3.35;;;;;;;18.24;88.44;100976.69;684026;28;1240;-44
2022/07/31 00:44:20;;;;;;;5.47;3.50;;;;;;;18.21;88.18;100971.50;683445;28;1273;-46
2022/07/31 00:44:41;;;;;;;5.38;3.33;;;;;;;18.17;88.17;100976.00;683167;28;1666;-45
2022/07/31 00:45:02;;;;;;;5.50;3.47;;;;;;;18.15;88.22;100966.38;685244;28;1280;-44
2022/07/31 00:45:23;;;;;;;5.70;3.60;;;;;;;18.15;88.42;100976.97;686751;28;1202;-45
2022/07/31 00:45:44;;;;;;;4.70;3.17;;;;;;;18.14;88.58;100980.53;684682;28;4595;-45
2022/07/31 00:46:04;;;;;;;5.15;3.30;;;;;;;18.12;89.38;100972.63;685580;28;1269;-43
2022/07/31 00:46:24;;;;;;;5.30;3.50;;;;;;;18.09;90.15;100972.72;688022;28;1253;-42
2022/07/31 00:46:45;;;;;;;5.00;3.60;;;;;;;18.10;89.57;100969.19;686096;28;1415;-42
2022/07/31 00:47:06;;;;;;;5.13;3.43;;;;;;;18.10;89.53;100968.31;685913;28;1274;-42
2022/07/31 00:47:26;;;;;;;5.75;3.60;;;;;;;18.10;90.19;100973.63;686386;28;1340;-44
2022/07/31 00:47:47;;;;;;;5.60;3.30;;;;;;;18.09;90.07;100969.22;682853;28;1211;-42
2022/07/31 00:48:10;;;;;;;4.82;3.40;;;;;;;18.08;90.36;100971.00;685595;28;1169;-45
2022/07/31 00:48:30;;;;;;;5.57;3.53;;;;;;;18.06;89.91;100972.84;685160;28;4433;-44
2022/07/31 00:48:50;;;;;;;6.20;3.50;;;;;;;18.06;90.94;100964.03;686405;28;1361;-47
2022/07/31 00:49:11;;;;;;;5.07;3.30;;;;;;;18.02;90.18;100969.41;685340;28;1453;-44
2022/07/31 00:49:31;;;;;;;5.45;3.58;;;;;;;18.01;90.11;100967.69;687068;28;1346;-44
2022/07/31 00:49:52;;;;;;;5.87;3.63;;;;;;;17.98;90.82;100975.69;689542;28;1101;-47
2022/07/31 00:50:12;;;;;;;6.93;4.07;;;;;;;17.96;90.70;100972.25;689158;28;1293;-44
2022/07/31 00:50:33;;;;;;;7.50;4.60;;;;;;;17.95;91.28;100975.81;689180;28;1434;-45
2022/07/31 00:50:54;;;;;;;8.70;4.43;;;;;;;17.93;92.41;100969.72;689624;28;1309;-45
2022/07/31 00:51:15;;;;;;;5.63;3.78;;;;;;;17.89;92.72;100968.03;688122;28;1365;-44
2022/07/31 00:51:36;;;;;;;11.50;7.63;;;;;;;17.87;91.77;100973.38;686213;28;5540;-44
2022/07/31 00:51:57;;;;;;;25.92;16.52;;;;;;;17.89;90.82;100962.75;684370;28;1318;-45
2022/07/31 00:52:18;;;;;;;25.60;16.90;;;;;;;17.89;90.58;100965.41;685126;28;1512;-44
2022/07/31 00:52:38;;;;;;;21.88;14.98;;;;;;;17.90;90.54;100956.53;682268;28;1267;-45
2022/07/31 00:52:59;;;;;;;19.87;12.53;;;;;;;17.91;90.37;100963.59;685474;28;1325;-44
2022/07/31 00:53:19;;;;;;;14.55;9.50;;;;;;;17.91;90.38;100963.59;681827;28;1203;-44
2022/07/31 00:53:40;;;;;;;11.97;7.97;;;;;;;17.88;90.31;100959.22;685054;28;1211;-44
2022/07/31 00:54:01;;;;;;;10.68;6.95;;;;;;;17.86;90.62;100965.47;684497;28;1259;-44
2022/07/31 00:54:21;;;;;;;9.55;6.63;;;;;;;17.83;90.58;100965.56;687336;28;1544;-44
2022/07/31 00:54:41;;;;;;;10.03;7.00;;;;;;;17.83;90.44;100965.56;682162;28;4885;-45
2022/07/31 00:55:02;;;;;;;10.75;6.85;;;;;;;17.83;90.46;100962.91;681929;28;1215;-45
2022/07/31 00:55:23;;;;;;;10.40;6.55;;;;;;;17.81;90.76;100957.69;683263;28;1246;-44
2022/07/31 00:55:43;;;;;;;10.50;6.37;;;;;;;17.81;91.08;100962.13;684424;28;1275;-44
2022/07/31 00:56:04;;;;;;;10.77;6.40;;;;;;;17.81;91.00;100962.97;683849;28;1230;-43
2022/07/31 00:56:24;;;;;;;9.65;6.32;;;;;;;17.79;91.41;100959.53;684243;28;1247;-45
2022/07/31 00:56:45;;;;;;;11.55;7.25;;;;;;;17.78;91.92;100965.72;690532;28;1301;-43
2022/07/31 00:57:06;;;;;;;11.05;6.80;;;;;;;17.76;92.20;100959.59;687596;28;1222;-45
2022/07/31 00:57:26;;;;;;;10.90;6.93;;;;;;;17.75;92.89;100967.56;687846;28;2099;-46
2022/07/31 00:57:47;;;;;;;10.95;6.70;;;;;;;17.77;91.83;100961.31;689175;28;5137;-44
2022/07/31 00:58:07;;;;;;;11.40;7.10;;;;;;;17.77;92.82;100963.13;687218;28;1269;-44
2022/07/31 00:58:27;;;;;;;10.10;7.20;;;;;;;17.77;91.79;100966.63;688285;28;1151;-44
2022/07/31 00:58:48;;;;;;;9.63;7.00;;;;;;;17.79;92.82;100958.63;688138;28;1464;-44
2022/07/31 00:59:08;;;;;;;9.63;6.60;;;;;;;17.78;92.88;100964.84;688990;28;1508;-44
2022/07/31 00:59:30;;;;;;;11.57;7.50;;;;;;;17.80;91.95;100960.38;685868;28;1369;-44
2022/07/31 00:59:50;;;;;;;10.93;7.20;;;;;;;17.82;91.44;100961.19;683788;28;1563;-43
2022/07/31 01:00:12;;;;;;;10.05;6.90;;;;;;;17.82;92.32;100964.72;681658;28;1490;-44
2022/07/31 01:00:32;;;;;;;11.10;6.50;;;;;;;17.80;91.97;100963.88;683875;28;4727;-44
2022/07/31 01:00:53;;;;;;;9.63;6.17;;;;;;;17.81;91.67;100964.75;683614;28;1655;-45
2022/07/31 01:01:13;;;;;;;9.95;6.10;;;;;;;17.83;91.73;100969.09;684453;28;1593;-43
2022/07/31 01:01:34;;;;;;;8.23;5.43;;;;;;;17.81;92.31;100962.97;686371;28;1139;-43
2022/07/31 01:01:56;;;;;;;7.55;5.30;;;;;;;17.80;91.43;100960.38;688626;28;1306;-44
2022/07/31 01:02:16;;;;;;;7.90;5.13;;;;;;;17.81;91.54;100957.69;687771;28;1147;-45
2022/07/31 01:02:37;;;;;;;7.67;5.10;;;;;;;17.81;91.34;100956.81;688816;28;1918;-43
2022/07/31 01:02:57;;;;;;;7.30;4.80;;;;;;;17.85;90.95;100961.09;689460;28;1562;-44
2022/07/31 01:03:18;;;;;;;7.20;4.80;;;;;;;17.85;91.09;100955.81;688348;28;1282;-44
2022/07/31 01:03:38;;;;;;;7.73;4.57;;;;;;;17.83;91.31;100961.16;684090;28;4565;-44
2022/07/31 01:03:59;;;;;;;6.13;4.00;;;;;;;17.79;91.40;100964.81;684817;28;1096;-43
2022/07/31 01:04:19;;;;;;;6.40;4.00;;;;;;;17.82;90.75;100962.06;684161;28;1427;-44
2022/07/31 01:04:39;;;;;;;6.67;4.10;;;;;;;17.83;91.01;100965.56;684319;28;1219;-44
2022/07/31 01:05:00;;;;;;;7.32;4.32;;;;;;;17.82;91.44;100964.72;684954;28;1170;-44
2022/07/31 01:05:20;;;;;;;7.33;4.70;;;;;;;17.77;91.84;100961.31;687519;28;1291;-44
2022/07/31 01:05:41;;;;;;;8.27;5.25;;;;;;;17.70;91.87;100960.63;687570;28;1258;-44
2022/07/31 01:06:02;;;;;;;9.17;5.90;;;;;;;17.68;92.46;100957.19;687108;28;4020;-44
2022/07/31 01:06:22;;;;;;;9.90;5.50;;;;;;;17.71;91.81;100961.53;681145;28;1338;-44
2022/07/31 01:06:43;;;;;;;7.57;4.57;;;;;;;17.74;92.60;100963.22;684488;28;4495;-44
2022/07/31 01:07:04;;;;;;;6.85;5.05;;;;;;;17.70;92.75;100959.78;684367;28;1241;-44
2022/07/31 01:07:24;;;;;;;7.03;5.67;;;;;;;17.69;92.48;100958.94;684451;28;997;-44
2022/07/31 01:07:45;;;;;;;7.50;6.00;;;;;;;17.66;93.33;100956.34;685229;28;1253;-43
2022/07/31 01:08:06;;;;;;;8.57;5.80;;;;;;;17.64;92.97;100958.19;688224;28;1335;-44
2022/07/31 01:08:26;;;;;;;8.25;5.57;;;;;;;17.63;93.01;100963.53;690816;28;1210;-44
2022/07/31 01:08:47;;;;;;;8.80;5.70;;;;;;;17.58;92.92;100960.16;685905;28;1372;-45
2022/07/31 01:09:08;;;;;;;9.57;5.97;;;;;;;17.56;92.73;100956.69;685170;28;1768;-45
2022/07/31 01:09:28;;;;;;;9.85;5.82;;;;;;;17.59;92.99;100960.09;685929;28;4713;-43
2022/07/31 01:09:50;;;;;;;8.17;5.93;;;;;;;17.57;93.39;100958.41;685698;28;1606;-44
2022/07/31 01:10:13;;;;;;;9.50;6.50;;;;;;;17.54;92.91;100964.63;681656;28;1315;-43
2022/07/31 01:10:41;;;;;;;9.82;6.40;;;;;;;17.53;92.64;100963.78;684578;28;1535;-44
2022/07/31 01:11:07;;;;;;;10.65;6.45;;;;;;;17.53;92.97;100963.78;686363;28;1537;-44
2022/07/31 01:11:47;;;;;;;9.25;6.32;;;;;;;17.50;93.09;100963.00;684500;28;1345;-44
2022/07/31 01:12:32;;;;;;;9.68;6.57;;;;;;;17.52;94.28;100958.56;687353;28;1154;-44
2022/07/31 01:13:03;;;;;;;10.02;6.47;;;;;;;17.50;94.87;100960.34;690469;28;5041;-45
2022/07/31 01:13:31;;;;;;;9.55;6.15;;;;;;;17.53;93.75;100953.22;690619;28;1078;-44
2022/07/31 01:14:00;;;;;;;8.32;6.00;;;;;;;17.55;93.79;100965.53;690729;28;1695;-43
2022/07/31 01:14:24;;;;;;;7.93;5.30;;;;;;;17.55;93.33;100957.59;690114;28;1217;-44
2022/07/31 01:14:49;;;;;;;8.73;5.43;;;;;;;17.56;94.10;100959.34;691823;28;1331;-45
2022/07/31 01:15:11;;;;;;;8.93;5.80;;;;;;;17.48;94.64;100956.91;690612;28;1348;-45
2022/07/31 01:15:33;;;;;;;8.88;5.88;;;;;;;17.45;93.90;100962.28;690161;28;4598;-46
2022/07/31 01:15:55;;;;;;;9.75;5.32;;;;;;;17.40;94.16;100958.91;689732;28;2103;-44
2022/07/31 01:16:17;;;;;;;10.40;6.68;;;;;;;17.41;94.21;100963.28;689102;28;2122;-44
2022/07/31 01:16:41;;;;;;;11.02;6.70;;;;;;;17.41;94.78;100958.84;687793;28;1479;-45
2022/07/31 01:17:05;;;;;;;9.35;6.32;;;;;;;17.43;94.81;100962.34;685431;28;2054;-46
2022/07/31 01:17:29;;;;;;;8.90;6.28;;;;;;;17.47;94.33;100960.44;685079;28;1266;-44
2022/07/31 01:17:51;;;;;;;8.98;6.30;;;;;;;17.47;94.00;100957.81;684111;28;1412;-44
2022/07/31 01:18:13;;;;;;;9.70;6.70;;;;;;;17.46;94.62;100956.06;685110;28;1378;-44
2022/07/31 01:18:37;;;;;;;13.02;9.68;;;;;;;17.42;94.12;100957.06;685383;28;4322;-44
2022/07/31 01:18:58;;;;;;;22.33;13.60;;;;;;;17.37;94.20;100957.22;688109;28;1574;-46
2022/07/31 01:19:30;;;;;;;23.67;14.10;;;;;;;17.38;94.22;100955.41;683926;28;2110;-44
2022/07/31 01:19:51;;;;;;;21.80;14.88;;;;;;;17.34;93.68;100958.16;686648;28;1338;-43
2022/07/31 01:20:14;;;;;;;21.50;15.32;;;;;;;17.36;94.98;100958.09;681448;28;2439;-44
2022/07/31 01:20:34;;;;;;;27.08;19.63;;;;;;;17.33;94.91;100960.84;683728;28;1357;-44
2022/07/31 01:21:00;;;;;;;37.20;26.93;;;;;;;17.33;94.71;100958.19;682577;28;1429;-44
2022/07/31 01:21:29;;;;;;;40.75;28.42;;;;;;;17.32;95.59;100964.38;681510;28;2007;-44
2022/07/31 01:22:25;;;;;;;39.90;28.25;;;;;;;17.36;95.99;100964.28;682111;28;6493;-45
2022/07/31 01:22:55;;;;;;;41.13;30.45;;;;;;;17.33;95.04;100963.50;686584;28;1922;-45
2022/07/31 01:23:21;;;;;;;36.22;30.40;;;;;;;17.39;93.74;100960.69;687876;28;1480;-43
2022/07/31 01:24:19;;;;;;;37.00;30.00;;;;;;;17.34;94.90;100959.94;690791;28;1182;-44
2022/07/31 01:25:27;;;;;;;27.55;23.77;;;;;;;17.35;94.97;100962.53;681713;28;4917;-45
2022/07/31 01:26:11;;;;;;;22.08;19.75;;;;;;;17.33;94.10;100963.50;679817;28;1396;-44
2022/07/31 01:26:48;;;;;;;24.10;21.45;;;;;;;17.41;93.96;100963.28;678741;28;1276;-44
2022/07/31 01:27:42;;;;;;;25.58;22.02;;;;;;;17.44;93.32;100963.19;681593;28;1768;-44
2022/07/31 01:28:08;;;;;;;17.85;15.02;;;;;;;17.45;93.22;100964.94;683208;28;5250;-43
2022/07/31 01:28:56;;;;;;;14.93;13.52;;;;;;;17.43;93.16;100967.63;679957;28;1738;-44
2022/07/31 01:29:41;;;;;;;14.65;13.25;;;;;;;17.36;94.14;100966.03;680445;28;1422;-46
2022/07/31 01:30:03;;;;;;;19.10;17.23;;;;;;;17.37;93.55;100962.50;682983;28;1525;-44
2022/07/31 01:30:32;;;;;;;20.25;18.35;;;;;;;17.35;94.13;100959.91;683073;28;1152;-44
2022/07/31 01:31:07;;;;;;;19.30;17.50;;;;;;;17.45;93.80;100964.94;683751;28;5031;-45
2022/07/31 01:31:38;;;;;;;16.58;14.88;;;;;;;17.38;94.08;100958.94;679945;28;1283;-44
2022/07/31 01:32:06;;;;;;;9.82;8.82;;;;;;;17.36;93.63;100969.56;681783;28;2263;-43
2022/07/31 01:32:33;;;;;;;10.15;9.15;;;;;;;17.38;94.75;100958.06;684763;28;1402;-44
2022/07/31 01:33:00;;;;;;;10.65;9.55;;;;;;;17.31;94.33;100965.31;685425;28;1480;-44
2022/07/31 01:33:25;;;;;;;9.30;8.35;;;;;;;17.23;94.65;100962.88;686412;28;1255;-46
2022/07/31 01:33:50;;;;;;;10.07;7.57;;;;;;;17.22;94.79;100961.13;685707;28;4358;-44
2022/07/31 01:34:35;;;;;;;8.00;6.28;;;;;;;17.24;94.51;100954.06;683729;28;1338;-44
2022/07/31 01:35:10;;;;;;;8.52;7.50;;;;;;;17.18;94.99;100959.50;684984;28;1487;-45
2022/07/31 01:35:41;;;;;;;7.00;6.30;;;;;;;17.16;95.05;100956.91;684940;28;1385;-44
2022/07/31 01:36:12;;;;;;;7.55;6.43;;;;;;;17.14;95.40;100956.09;687097;28;1439;-43
2022/07/31 01:36:37;;;;;;;6.65;6.00;;;;;;;17.15;95.73;100960.44;688507;28;4549;-44
2022/07/31 01:37:20;;;;;;;7.30;6.38;;;;;;;17.10;95.50;100957.06;685288;28;1505;-43
2022/07/31 01:37:49;;;;;;;7.32;5.55;;;;;;;17.06;95.74;100952.78;684759;28;1425;-44
2022/07/31 01:38:19;;;;;;;6.60;5.65;;;;;;;17.06;95.56;100957.19;684775;28;1414;-44
2022/07/31 01:38:44;;;;;;;7.32;5.82;;;;;;;17.13;95.78;100953.50;683794;28;1228;-44
2022/07/31 01:39:05;;;;;;;6.60;5.63;;;;;;;17.15;96.11;100952.50;687157;28;1267;-43
2022/07/31 01:39:31;;;;;;;6.35;5.75;;;;;;;17.14;94.96;100949.91;683982;28;1368;-46
2022/07/31 01:40:07;;;;;;;6.95;5.55;;;;;;;17.17;95.68;100950.72;684485;28;4978;-45
2022/07/31 01:40:36;;;;;;;7.57;5.50;;;;;;;17.13;95.34;100950.84;686815;28;1636;-44
2022/07/31 01:41:01;;;;;;;6.97;5.00;;;;;;;17.13;94.17;100949.06;687164;28;1425;-43
2022/07/31 01:41:29;;;;;;;6.97;5.53;;;;;;;17.17;96.36;100952.50;686522;28;1333;-44
2022/07/31 01:41:51;;;;;;;6.32;5.20;;;;;;;17.17;95.49;100950.72;687114;28;1472;-44
2022/07/31 01:42:15;;;;;;;5.90;5.03;;;;;;;17.20;94.92;100947.13;687393;28;1492;-43
2022/07/31 01:42:38;;;;;;;5.65;4.72;;;;;;;17.19;94.46;100954.16;686124;28;4584;-44
2022/07/31 01:43:06;;;;;;;6.03;5.07;;;;;;;17.21;95.33;100945.34;686167;28;1561;-43
2022/07/31 01:43:34;;;;;;;8.05;5.22;;;;;;;17.14;94.94;100949.91;690421;28;1186;-44
2022/07/31 01:43:57;;;;;;;5.88;5.00;;;;;;;17.16;94.93;100945.47;690537;28;1697;-44
2022/07/31 01:44:20;;;;;;;5.85;5.25;;;;;;;17.11;95.36;100947.38;688166;28;1547;-45
2022/07/31 01:44:46;;;;;;;6.22;5.40;;;;;;;17.08;95.12;100944.81;687741;28;1242;-44
2022/07/31 01:45:11;;;;;;;7.78;4.97;;;;;;;17.06;94.74;100946.63;686462;28;1431;-44
2022/07/31 01:45:34;;;;;;;8.77;5.45;;;;;;;17.11;95.48;100944.72;682994;28;4400;-44
2022/07/31 01:45:56;;;;;;;7.13;5.47;;;;;;;17.09;95.49;100946.56;681513;28;1536;-44
2022/07/31 01:46:19;;;;;;;7.28;5.10;;;;;;;17.09;94.91;100942.13;684777;28;1397;-44
2022/07/31 01:46:42;;;;;;;6.40;5.00;;;;;;;17.10;95.81;100946.50;685297;28;1219;-44
2022/07/31 01:47:06;;;;;;;6.85;5.15;;;;;;;17.06;94.59;100947.50;677602;29;1801;-45
2022/07/31 01:47:29;;;;;;;6.68;5.40;;;;;;;17.06;95.25;100946.63;683633;28;1477;-47
2022/07/31 01:47:51;;;;;;;7.15;5.55;;;;;;;17.02;95.65;100946.72;681628;28;1252;-44
2022/07/31 01:48:13;;;;;;;7.38;5.50;;;;;;;16.99;95.49;100945.94;680496;28;1427;-43
2022/07/31 01:48:35;;;;;;;7.03;5.00;;;;;;;17.01;95.20;100944.97;679283;28;4532;-44
2022/07/31 01:48:56;;;;;;;6.85;5.35;;;;;;;16.99;95.64;100946.78;679789;28;1384;-44
2022/07/31 01:49:18;;;;;;;7.15;5.40;;;;;;;17.01;96.93;100944.13;680524;28;1322;-44
2022/07/31 01:49:40;;;;;;;6.68;5.50;;;;;;;16.96;95.83;100941.59;684673;28;1532;-46